Ganado, Texas
Current Conditions -  °F | °C
As of 1:53 AM on Wednesday 26 Nov 2014 (Local Time) from KPSX Reporting Station
Clear Clear  
Wind Chill: 56°   Ceiling: Unl
Heat Index: 56°   Visibility: 10mi
Dew Point: 47°   Wind: 7mph
Humidity: 72%   Direction: 210°SSW
Pressure: 30.24"   Gusts: NA
Location:  29.04°N, 96.51°W
Report Text: KPSX 260753Z AUTO 21006KT 10SM CLR 13/08 A3024 RMK AO2 SLP238 T01330083
Loading
Personal Weather Stations






























Interactive Weather Map New forecast layout! Learn more

10-Day Weather Forecast

Advertisements
Track Severe Weather on mobile